sensor_id;sensor_type;location;lat;lon;timestamp;temperature;humidity
38325;DHT22;24126;52.672;13.622;2023-07-31T00:01:57;22.20;67.70
38325;DHT22;24126;52.672;13.622;2023-07-31T00:04:24;22.10;67.60
38325;DHT22;24126;52.672;13.622;2023-07-31T00:06:51;22.10;67.90
38325;DHT22;24126;52.672;13.622;2023-07-31T00:09:18;22.00;68.00
38325;DHT22;24126;52.672;13.622;2023-07-31T00:11:45;22.00;68.10
38325;DHT22;24126;52.672;13.622;2023-07-31T00:14:12;22.00;68.10
38325;DHT22;24126;52.672;13.622;2023-07-31T00:16:39;22.00;67.90
38325;DHT22;24126;52.672;13.622;2023-07-31T00:19:06;22.00;67.90
38325;DHT22;24126;52.672;13.622;2023-07-31T00:21:33;22.00;67.80
38325;DHT22;24126;52.672;13.622;2023-07-31T00:24:01;22.00;67.50
38325;DHT22;24126;52.672;13.622;2023-07-31T00:26:28;21.90;67.70
38325;DHT22;24126;52.672;13.622;2023-07-31T00:28:55;21.80;67.90
38325;DHT22;24126;52.672;13.622;2023-07-31T00:31:22;21.80;67.80
38325;DHT22;24126;52.672;13.622;2023-07-31T00:33:49;21.80;67.90
38325;DHT22;24126;52.672;13.622;2023-07-31T00:36:16;21.70;68.00
38325;DHT22;24126;52.672;13.622;2023-07-31T00:38:44;21.70;68.00
38325;DHT22;24126;52.672;13.622;2023-07-31T00:41:11;21.70;67.90
38325;DHT22;24126;52.672;13.622;2023-07-31T00:43:38;21.70;67.70
38325;DHT22;24126;52.672;13.622;2023-07-31T00:46:07;21.70;67.70
38325;DHT22;24126;52.672;13.622;2023-07-31T00:48:34;21.70;67.70
38325;DHT22;24126;52.672;13.622;2023-07-31T00:51:04;21.60;67.60
38325;DHT22;24126;52.672;13.622;2023-07-31T00:53:31;21.60;67.60
38325;DHT22;24126;52.672;13.622;2023-07-31T00:55:59;21.60;67.70
38325;DHT22;24126;52.672;13.622;2023-07-31T00:58:26;21.60;67.90
38325;DHT22;24126;52.672;13.622;2023-07-31T01:00:53;21.60;67.90
38325;DHT22;24126;52.672;13.622;2023-07-31T01:03:20;21.60;67.80
38325;DHT22;24126;52.672;13.622;2023-07-31T01:05:51;21.50;67.80
38325;DHT22;24126;52.672;13.622;2023-07-31T01:08:57;21.50;68.10
38325;DHT22;24126;52.672;13.622;2023-07-31T01:11:16;21.40;68.30
38325;DHT22;24126;52.672;13.622;2023-07-31T01:13:44;21.30;68.60
38325;DHT22;24126;52.672;13.622;2023-07-31T01:16:12;21.30;68.60
38325;DHT22;24126;52.672;13.622;2023-07-31T01:18:39;21.20;69.00
38325;DHT22;24126;52.672;13.622;2023-07-31T01:21:23;21.20;69.00
38325;DHT22;24126;52.672;13.622;2023-07-31T01:26:24;21.10;69.30
38325;DHT22;24126;52.672;13.622;2023-07-31T01:31:22;21.20;69.60
38325;DHT22;24126;52.672;13.622;2023-07-31T01:33:52;21.20;69.60
38325;DHT22;24126;52.672;13.622;2023-07-31T01:36:19;21.30;69.80
38325;DHT22;24126;52.672;13.622;2023-07-31T01:38:46;21.30;69.80
38325;DHT22;24126;52.672;13.622;2023-07-31T01:41:16;21.30;69.90
38325;DHT22;24126;52.672;13.622;2023-07-31T01:43:43;21.30;69.90
38325;DHT22;24126;52.672;13.622;2023-07-31T01:46:10;21.30;69.90
38325;DHT22;24126;52.672;13.622;2023-07-31T01:48:37;21.40;70.00
38325;DHT22;24126;52.672;13.622;2023-07-31T01:51:05;21.40;70.00
38325;DHT22;24126;52.672;13.622;2023-07-31T01:53:32;21.40;70.00
38325;DHT22;24126;52.672;13.622;2023-07-31T01:55:59;21.40;70.00
38325;DHT22;24126;52.672;13.622;2023-07-31T01:58:27;21.40;69.90
38325;DHT22;24126;52.672;13.622;2023-07-31T02:00:54;21.50;70.00
38325;DHT22;24126;52.672;13.622;2023-07-31T02:03:21;21.50;70.10
38325;DHT22;24126;52.672;13.622;2023-07-31T02:05:49;21.50;70.00
38325;DHT22;24126;52.672;13.622;2023-07-31T02:08:16;21.50;70.10
38325;DHT22;24126;52.672;13.622;2023-07-31T02:10:44;21.50;70.10
38325;DHT22;24126;52.672;13.622;2023-07-31T02:13:11;21.50;70.20
38325;DHT22;24126;52.672;13.622;2023-07-31T02:15:38;21.50;70.20
38325;DHT22;24126;52.672;13.622;2023-07-31T02:18:05;21.50;70.30
38325;DHT22;24126;52.672;13.622;2023-07-31T02:20:34;21.60;70.40
38325;DHT22;24126;52.672;13.622;2023-07-31T02:23:02;21.60;70.50
38325;DHT22;24126;52.672;13.622;2023-07-31T02:25:29;21.60;70.90
38325;DHT22;24126;52.672;13.622;2023-07-31T02:27:56;21.60;70.70
38325;DHT22;24126;52.672;13.622;2023-07-31T02:30:23;21.60;70.70
38325;DHT22;24126;52.672;13.622;2023-07-31T02:32:50;21.60;70.60
38325;DHT22;24126;52.672;13.622;2023-07-31T02:35:17;21.60;70.60
38325;DHT22;24126;52.672;13.622;2023-07-31T02:37:46;21.60;70.70
38325;DHT22;24126;52.672;13.622;2023-07-31T02:40:13;21.60;70.70
38325;DHT22;24126;52.672;13.622;2023-07-31T02:42:40;21.60;70.80
38325;DHT22;24126;52.672;13.622;2023-07-31T02:45:07;21.60;70.90
38325;DHT22;24126;52.672;13.622;2023-07-31T02:47:34;21.70;71.60
38325;DHT22;24126;52.672;13.622;2023-07-31T02:50:05;21.60;70.90
38325;DHT22;24126;52.672;13.622;2023-07-31T02:52:34;21.60;71.10
38325;DHT22;24126;52.672;13.622;2023-07-31T02:55:01;21.60;71.10
38325;DHT22;24126;52.672;13.622;2023-07-31T02:57:28;21.60;71.20
38325;DHT22;24126;52.672;13.622;2023-07-31T02:59:55;21.60;71.40
38325;DHT22;24126;52.672;13.622;2023-07-31T03:02:22;21.60;71.70
38325;DHT22;24126;52.672;13.622;2023-07-31T03:04:50;21.50;71.50
38325;DHT22;24126;52.672;13.622;2023-07-31T03:07:17;21.50;71.50
38325;DHT22;24126;52.672;13.622;2023-07-31T03:09:44;21.50;71.60
38325;DHT22;24126;52.672;13.622;2023-07-31T03:12:11;21.50;71.70
38325;DHT22;24126;52.672;13.622;2023-07-31T03:14:38;21.40;71.80
38325;DHT22;24126;52.672;13.622;2023-07-31T03:17:05;21.50;72.00
38325;DHT22;24126;52.672;13.622;2023-07-31T03:19:33;21.50;72.00
38325;DHT22;24126;52.672;13.622;2023-07-31T03:22:00;21.40;71.90
38325;DHT22;24126;52.672;13.622;2023-07-31T03:24:28;21.40;72.00
38325;DHT22;24126;52.672;13.622;2023-07-31T03:26:56;21.40;72.30
38325;DHT22;24126;52.672;13.622;2023-07-31T03:29:23;21.40;72.30
38325;DHT22;24126;52.672;13.622;2023-07-31T03:31:50;21.40;72.30
38325;DHT22;24126;52.672;13.622;2023-07-31T03:34:17;21.40;72.10
38325;DHT22;24126;52.672;13.622;2023-07-31T03:36:44;21.40;72.20
38325;DHT22;24126;52.672;13.622;2023-07-31T03:39:11;21.40;72.30
38325;DHT22;24126;52.672;13.622;2023-07-31T03:41:39;21.40;72.50
38325;DHT22;24126;52.672;13.622;2023-07-31T03:44:06;21.40;72.50
38325;DHT22;24126;52.672;13.622;2023-07-31T03:46:33;21.40;72.40
38325;DHT22;24126;52.672;13.622;2023-07-31T03:49:01;21.30;72.20
38325;DHT22;24126;52.672;13.622;2023-07-31T03:51:29;21.30;72.40
38325;DHT22;24126;52.672;13.622;2023-07-31T03:53:56;21.20;72.70
38325;DHT22;24126;52.672;13.622;2023-07-31T03:56:23;21.20;72.70
38325;DHT22;24126;52.672;13.622;2023-07-31T03:58:50;21.20;72.80
38325;DHT22;24126;52.672;13.622;2023-07-31T04:01:19;21.10;72.80
38325;DHT22;24126;52.672;13.622;2023-07-31T04:03:46;21.00;73.00
38325;DHT22;24126;52.672;13.622;2023-07-31T04:06:13;20.90;73.40
38325;DHT22;24126;52.672;13.622;2023-07-31T04:08:44;20.90;73.70
38325;DHT22;24126;52.672;13.622;2023-07-31T04:11:11;20.90;73.70
38325;DHT22;24126;52.672;13.622;2023-07-31T04:13:38;20.90;74.00
38325;DHT22;24126;52.672;13.622;2023-07-31T04:16:05;20.80;74.20
38325;DHT22;24126;52.672;13.622;2023-07-31T04:18:32;20.80;74.50
38325;DHT22;24126;52.672;13.622;2023-07-31T04:21:00;20.70;74.50
38325;DHT22;24126;52.672;13.622;2023-07-31T04:23:28;20.70;74.70
38325;DHT22;24126;52.672;13.622;2023-07-31T04:25:55;20.70;74.80
38325;DHT22;24126;52.672;13.622;2023-07-31T04:28:22;20.70;75.10
38325;DHT22;24126;52.672;13.622;2023-07-31T04:30:51;20.70;75.20
38325;DHT22;24126;52.672;13.622;2023-07-31T04:33:19;20.70;75.30
38325;DHT22;24126;52.672;13.622;2023-07-31T04:35:50;20.70;75.30
38325;DHT22;24126;52.672;13.622;2023-07-31T04:38:21;20.70;75.40
38325;DHT22;24126;52.672;13.622;2023-07-31T04:40:48;20.80;75.40
38325;DHT22;24126;52.672;13.622;2023-07-31T04:43:15;20.80;75.40
38325;DHT22;24126;52.672;13.622;2023-07-31T04:45:44;20.90;75.50
38325;DHT22;24126;52.672;13.622;2023-07-31T04:48:12;20.90;75.50
38325;DHT22;24126;52.672;13.622;2023-07-31T04:50:40;21.00;75.60
38325;DHT22;24126;52.672;13.622;2023-07-31T04:53:07;21.00;75.40
38325;DHT22;24126;52.672;13.622;2023-07-31T04:55:34;21.00;75.40
38325;DHT22;24126;52.672;13.622;2023-07-31T04:58:01;21.10;75.60
38325;DHT22;24126;52.672;13.622;2023-07-31T05:00:28;21.10;75.60
38325;DHT22;24126;52.672;13.622;2023-07-31T05:02:56;21.10;75.60
38325;DHT22;24126;52.672;13.622;2023-07-31T05:05:24;21.20;75.50
38325;DHT22;24126;52.672;13.622;2023-07-31T05:07:51;21.20;75.70
38325;DHT22;24126;52.672;13.622;2023-07-31T05:10:18;21.20;75.80
38325;DHT22;24126;52.672;13.622;2023-07-31T05:12:45;21.20;75.60
38325;DHT22;24126;52.672;13.622;2023-07-31T05:15:12;21.20;76.40
38325;DHT22;24126;52.672;13.622;2023-07-31T05:17:40;21.30;75.60
38325;DHT22;24126;52.672;13.622;2023-07-31T05:20:07;21.30;75.70
38325;DHT22;24126;52.672;13.622;2023-07-31T05:22:35;21.30;75.60
38325;DHT22;24126;52.672;13.622;2023-07-31T05:25:02;21.40;75.70
38325;DHT22;24126;52.672;13.622;2023-07-31T05:27:29;21.40;75.60
38325;DHT22;24126;52.672;13.622;2023-07-31T05:29:56;21.40;75.50
38325;DHT22;24126;52.672;13.622;2023-07-31T05:32:23;21.50;75.50
38325;DHT22;24126;52.672;13.622;2023-07-31T05:34:51;21.50;75.40
38325;DHT22;24126;52.672;13.622;2023-07-31T05:37:18;21.50;75.40
38325;DHT22;24126;52.672;13.622;2023-07-31T05:39:46;21.60;75.60
38325;DHT22;24126;52.672;13.622;2023-07-31T05:42:13;21.60;75.50
38325;DHT22;24126;52.672;13.622;2023-07-31T05:44:40;21.60;75.70
38325;DHT22;24126;52.672;13.622;2023-07-31T05:47:07;21.60;75.60
38325;DHT22;24126;52.672;13.622;2023-07-31T05:49:34;21.70;75.60
38325;DHT22;24126;52.672;13.622;2023-07-31T05:52:01;21.70;75.70
38325;DHT22;24126;52.672;13.622;2023-07-31T05:54:28;21.70;75.90
38325;DHT22;24126;52.672;13.622;2023-07-31T05:56:55;21.80;75.80
38325;DHT22;24126;52.672;13.622;2023-07-31T05:59:22;21.80;75.80
38325;DHT22;24126;52.672;13.622;2023-07-31T06:01:49;21.80;75.60
38325;DHT22;24126;52.672;13.622;2023-07-31T06:04:16;21.80;75.70
38325;DHT22;24126;52.672;13.622;2023-07-31T06:06:43;21.80;75.60
38325;DHT22;24126;52.672;13.622;2023-07-31T06:09:10;21.90;75.70
38325;DHT22;24126;52.672;13.622;2023-07-31T06:11:37;21.90;75.70
38325;DHT22;24126;52.672;13.622;2023-07-31T06:14:04;21.90;75.70
38325;DHT22;24126;52.672;13.622;2023-07-31T06:16:31;21.90;75.80
38325;DHT22;24126;52.672;13.622;2023-07-31T06:18:58;21.90;75.80
38325;DHT22;24126;52.672;13.622;2023-07-31T06:21:26;21.90;75.90
38325;DHT22;24126;52.672;13.622;2023-07-31T06:23:53;21.90;75.90
38325;DHT22;24126;52.672;13.622;2023-07-31T06:26:20;21.90;76.00
38325;DHT22;24126;52.672;13.622;2023-07-31T06:28:47;21.90;76.00
38325;DHT22;24126;52.672;13.622;2023-07-31T06:31:14;21.90;76.20
38325;DHT22;24126;52.672;13.622;2023-07-31T06:33:41;21.90;76.20
38325;DHT22;24126;52.672;13.622;2023-07-31T06:36:08;22.00;76.30
38325;DHT22;24126;52.672;13.622;2023-07-31T06:38:35;22.00;76.20
38325;DHT22;24126;52.672;13.622;2023-07-31T06:41:03;22.10;76.60
38325;DHT22;24126;52.672;13.622;2023-07-31T06:43:30;22.10;76.60
38325;DHT22;24126;52.672;13.622;2023-07-31T06:45:59;22.10;76.60
38325;DHT22;24126;52.672;13.622;2023-07-31T06:48:31;22.20;76.70
38325;DHT22;24126;52.672;13.622;2023-07-31T06:50:58;22.30;76.90
38325;DHT22;24126;52.672;13.622;2023-07-31T06:53:25;22.30;76.60
38325;DHT22;24126;52.672;13.622;2023-07-31T06:55:52;22.30;76.60
38325;DHT22;24126;52.672;13.622;2023-07-31T06:58:19;22.30;76.70
38325;DHT22;24126;52.672;13.622;2023-07-31T07:00:46;22.30;76.50
38325;DHT22;24126;52.672;13.622;2023-07-31T07:03:16;22.40;76.90
38325;DHT22;24126;52.672;13.622;2023-07-31T07:05:43;22.30;76.90
38325;DHT22;24126;52.672;13.622;2023-07-31T07:08:10;22.40;76.80
38325;DHT22;24126;52.672;13.622;2023-07-31T07:10:37;22.40;76.90
38325;DHT22;24126;52.672;13.622;2023-07-31T07:13:04;22.40;76.90
38325;DHT22;24126;52.672;13.622;2023-07-31T07:15:31;22.40;76.90
38325;DHT22;24126;52.672;13.622;2023-07-31T07:17:58;22.40;77.00
38325;DHT22;24126;52.672;13.622;2023-07-31T07:20:25;22.50;77.00
38325;DHT22;24126;52.672;13.622;2023-07-31T07:22:52;22.50;76.90
38325;DHT22;24126;52.672;13.622;2023-07-31T07:25:23;22.50;76.90
38325;DHT22;24126;52.672;13.622;2023-07-31T07:27:50;22.50;76.90
38325;DHT22;24126;52.672;13.622;2023-07-31T07:30:17;22.60;77.10
38325;DHT22;24126;52.672;13.622;2023-07-31T07:32:45;22.60;76.70
38325;DHT22;24126;52.672;13.622;2023-07-31T07:35:12;22.50;76.70
38325;DHT22;24126;52.672;13.622;2023-07-31T07:37:39;22.50;76.80
38325;DHT22;24126;52.672;13.622;2023-07-31T07:40:06;22.50;76.70
38325;DHT22;24126;52.672;13.622;2023-07-31T07:42:34;22.50;76.90
38325;DHT22;24126;52.672;13.622;2023-07-31T07:45:01;22.50;76.80
38325;DHT22;24126;52.672;13.622;2023-07-31T07:47:29;22.50;77.00
38325;DHT22;24126;52.672;13.622;2023-07-31T07:49:56;22.50;77.00
38325;DHT22;24126;52.672;13.622;2023-07-31T07:52:23;22.50;76.80
38325;DHT22;24126;52.672;13.622;2023-07-31T07:54:50;22.60;77.00
38325;DHT22;24126;52.672;13.622;2023-07-31T07:57:17;22.50;77.00
38325;DHT22;24126;52.672;13.622;2023-07-31T07:59:44;22.60;77.10
38325;DHT22;24126;52.672;13.622;2023-07-31T08:02:11;22.50;77.00
38325;DHT22;24126;52.672;13.622;2023-07-31T08:04:38;22.50;77.10
38325;DHT22;24126;52.672;13.622;2023-07-31T08:07:05;22.50;77.20
38325;DHT22;24126;52.672;13.622;2023-07-31T08:09:32;22.50;77.40
38325;DHT22;24126;52.672;13.622;2023-07-31T08:11:59;22.60;77.50
38325;DHT22;24126;52.672;13.622;2023-07-31T08:14:29;22.60;77.50
38325;DHT22;24126;52.672;13.622;2023-07-31T08:16:56;22.70;77.30
38325;DHT22;24126;52.672;13.622;2023-07-31T08:19:23;22.70;77.20
38325;DHT22;24126;52.672;13.622;2023-07-31T08:21:50;22.70;77.20
38325;DHT22;24126;52.672;13.622;2023-07-31T08:24:17;22.70;77.20
38325;DHT22;24126;52.672;13.622;2023-07-31T08:26:44;22.80;77.40
38325;DHT22;24126;52.672;13.622;2023-07-31T08:29:11;22.80;77.20
38325;DHT22;24126;52.672;13.622;2023-07-31T08:31:38;22.80;77.20
38325;DHT22;24126;52.672;13.622;2023-07-31T08:34:05;22.90;77.30
38325;DHT22;24126;52.672;13.622;2023-07-31T08:36:32;22.90;77.20
38325;DHT22;24126;52.672;13.622;2023-07-31T08:38:59;22.90;77.00
38325;DHT22;24126;52.672;13.622;2023-07-31T08:41:27;23.00;77.00
38325;DHT22;24126;52.672;13.622;2023-07-31T08:43:54;23.00;76.90
38325;DHT22;24126;52.672;13.622;2023-07-31T08:46:21;23.00;76.90
38325;DHT22;24126;52.672;13.622;2023-07-31T08:48:49;23.00;76.90
38325;DHT22;24126;52.672;13.622;2023-07-31T08:51:18;23.00;76.80
38325;DHT22;24126;52.672;13.622;2023-07-31T08:53:46;22.90;76.60
38325;DHT22;24126;52.672;13.622;2023-07-31T08:56:13;22.90;76.60
38325;DHT22;24126;52.672;13.622;2023-07-31T08:58:42;22.90;76.70
38325;DHT22;24126;52.672;13.622;2023-07-31T09:01:10;22.90;76.80
38325;DHT22;24126;52.672;13.622;2023-07-31T09:03:38;22.90;76.80
38325;DHT22;24126;52.672;13.622;2023-07-31T09:06:05;22.90;77.10
38325;DHT22;24126;52.672;13.622;2023-07-31T09:08:33;22.80;76.90
38325;DHT22;24126;52.672;13.622;2023-07-31T09:11:01;22.80;76.90
38325;DHT22;24126;52.672;13.622;2023-07-31T09:13:32;22.80;77.20
38325;DHT22;24126;52.672;13.622;2023-07-31T09:15:59;22.80;77.40
38325;DHT22;24126;52.672;13.622;2023-07-31T09:18:26;22.80;77.40
38325;DHT22;24126;52.672;13.622;2023-07-31T09:21:03;22.80;77.40
38325;DHT22;24126;52.672;13.622;2023-07-31T09:23:40;22.90;77.70
38325;DHT22;24126;52.672;13.622;2023-07-31T09:26:07;22.90;77.60
38325;DHT22;24126;52.672;13.622;2023-07-31T09:28:34;23.00;77.70
38325;DHT22;24126;52.672;13.622;2023-07-31T09:31:01;23.00;77.70
38325;DHT22;24126;52.672;13.622;2023-07-31T09:33:28;23.10;77.80
38325;DHT22;24126;52.672;13.622;2023-07-31T09:35:58;23.20;77.80
38325;DHT22;24126;52.672;13.622;2023-07-31T09:38:25;23.30;77.50
38325;DHT22;24126;52.672;13.622;2023-07-31T09:40:52;23.20;76.80
38325;DHT22;24126;52.672;13.622;2023-07-31T09:43:20;23.20;76.80
38325;DHT22;24126;52.672;13.622;2023-07-31T09:45:47;23.20;76.90
38325;DHT22;24126;52.672;13.622;2023-07-31T09:48:15;23.20;77.30
38325;DHT22;24126;52.672;13.622;2023-07-31T09:50:46;23.20;77.30
38325;DHT22;24126;52.672;13.622;2023-07-31T09:53:15;23.30;77.40
38325;DHT22;24126;52.672;13.622;2023-07-31T09:55:42;23.30;77.50
38325;DHT22;24126;52.672;13.622;2023-07-31T09:58:10;23.30;77.20
38325;DHT22;24126;52.672;13.622;2023-07-31T10:00:37;23.30;77.00
38325;DHT22;24126;52.672;13.622;2023-07-31T10:03:08;23.20;77.00
38325;DHT22;24126;52.672;13.622;2023-07-31T10:05:44;23.20;77.20
38325;DHT22;24126;52.672;13.622;2023-07-31T10:08:13;23.20;77.20
38325;DHT22;24126;52.672;13.622;2023-07-31T10:10:42;23.20;77.10
38325;DHT22;24126;52.672;13.622;2023-07-31T10:13:09;23.10;77.00
38325;DHT22;24126;52.672;13.622;2023-07-31T10:15:37;23.10;77.20
38325;DHT22;24126;52.672;13.622;2023-07-31T10:18:08;23.10;77.40
38325;DHT22;24126;52.672;13.622;2023-07-31T10:20:35;23.10;77.70
38325;DHT22;24126;52.672;13.622;2023-07-31T10:23:02;23.10;78.10
38325;DHT22;24126;52.672;13.622;2023-07-31T10:25:29;23.20;78.50
38325;DHT22;24126;52.672;13.622;2023-07-31T10:27:57;23.40;78.60
38325;DHT22;24126;52.672;13.622;2023-07-31T10:30:25;23.50;78.40
38325;DHT22;24126;52.672;13.622;2023-07-31T10:32:55;23.50;78.10
38325;DHT22;24126;52.672;13.622;2023-07-31T10:35:22;23.60;78.00
38325;DHT22;24126;52.672;13.622;2023-07-31T10:37:50;23.60;77.70
38325;DHT22;24126;52.672;13.622;2023-07-31T10:40:17;23.60;77.30
38325;DHT22;24126;52.672;13.622;2023-07-31T10:42:55;23.50;77.40
38325;DHT22;24126;52.672;13.622;2023-07-31T10:45:33;23.40;77.70
38325;DHT22;24126;52.672;13.622;2023-07-31T10:48:03;23.50;77.80
38325;DHT22;24126;52.672;13.622;2023-07-31T10:50:31;23.40;77.80
38325;DHT22;24126;52.672;13.622;2023-07-31T10:52:59;23.40;77.80
38325;DHT22;24126;52.672;13.622;2023-07-31T10:55:28;23.40;77.80
38325;DHT22;24126;52.672;13.622;2023-07-31T10:57:57;23.40;77.70
38325;DHT22;24126;52.672;13.622;2023-07-31T11:00:28;23.40;77.70
38325;DHT22;24126;52.672;13.622;2023-07-31T11:03:05;23.30;77.70
38325;DHT22;24126;52.672;13.622;2023-07-31T11:08:10;23.30;78.10
38325;DHT22;24126;52.672;13.622;2023-07-31T11:10:37;23.30;78.30
38325;DHT22;24126;52.672;13.622;2023-07-31T11:13:04;23.40;78.50
38325;DHT22;24126;52.672;13.622;2023-07-31T11:15:31;23.40;78.60
38325;DHT22;24126;52.672;13.622;2023-07-31T11:18:00;23.40;78.60
38325;DHT22;24126;52.672;13.622;2023-07-31T11:20:29;23.60;78.80
38325;DHT22;24126;52.672;13.622;2023-07-31T11:23:03;23.70;79.30
38325;DHT22;24126;52.672;13.622;2023-07-31T11:25:31;23.90;79.30
38325;DHT22;24126;52.672;13.622;2023-07-31T11:28:11;24.00;78.90
38325;DHT22;24126;52.672;13.622;2023-07-31T11:30:39;24.20;78.60
38325;DHT22;24126;52.672;13.622;2023-07-31T11:33:07;24.30;78.20
38325;DHT22;24126;52.672;13.622;2023-07-31T11:35:35;24.40;77.60
38325;DHT22;24126;52.672;13.622;2023-07-31T11:38:02;24.40;77.10
38325;DHT22;24126;52.672;13.622;2023-07-31T11:40:29;24.30;76.90
38325;DHT22;24126;52.672;13.622;2023-07-31T11:42:57;24.30;77.10
38325;DHT22;24126;52.672;13.622;2023-07-31T11:45:25;24.30;77.30
38325;DHT22;24126;52.672;13.622;2023-07-31T11:47:54;24.40;77.20
38325;DHT22;24126;52.672;13.622;2023-07-31T11:50:21;24.40;77.00
38325;DHT22;24126;52.672;13.622;2023-07-31T11:52:48;24.50;77.00
38325;DHT22;24126;52.672;13.622;2023-07-31T11:55:16;24.50;77.00
38325;DHT22;24126;52.672;13.622;2023-07-31T11:57:44;24.60;76.90
38325;DHT22;24126;52.672;13.622;2023-07-31T12:00:12;24.60;76.80
38325;DHT22;24126;52.672;13.622;2023-07-31T12:02:40;24.80;76.60
38325;DHT22;24126;52.672;13.622;2023-07-31T12:05:11;24.90;76.00
38325;DHT22;24126;52.672;13.622;2023-07-31T12:07:49;24.90;75.10
38325;DHT22;24126;52.672;13.622;2023-07-31T12:10:27;24.90;74.70
38325;DHT22;24126;52.672;13.622;2023-07-31T12:12:58;24.80;74.40
38325;DHT22;24126;52.672;13.622;2023-07-31T12:15:44;24.80;74.60
38325;DHT22;24126;52.672;13.622;2023-07-31T12:18:12;24.80;74.50
38325;DHT22;24126;52.672;13.622;2023-07-31T12:20:40;24.80;74.40
38325;DHT22;24126;52.672;13.622;2023-07-31T12:23:07;24.80;73.70
38325;DHT22;24126;52.672;13.622;2023-07-31T12:25:39;24.70;73.40
38325;DHT22;24126;52.672;13.622;2023-07-31T12:28:07;24.70;73.00
38325;DHT22;24126;52.672;13.622;2023-07-31T12:30:38;24.70;73.30
38325;DHT22;24126;52.672;13.622;2023-07-31T12:33:07;24.70;73.20
38325;DHT22;24126;52.672;13.622;2023-07-31T12:35:40;24.70;73.00
38325;DHT22;24126;52.672;13.622;2023-07-31T12:38:07;24.70;72.90
38325;DHT22;24126;52.672;13.622;2023-07-31T12:40:38;24.70;73.30
38325;DHT22;24126;52.672;13.622;2023-07-31T12:43:06;24.60;73.10
38325;DHT22;24126;52.672;13.622;2023-07-31T12:45:33;24.50;73.40
38325;DHT22;24126;52.672;13.622;2023-07-31T12:48:00;24.50;73.60
38325;DHT22;24126;52.672;13.622;2023-07-31T12:50:27;24.40;73.90
38325;DHT22;24126;52.672;13.622;2023-07-31T12:52:54;24.50;74.40
38325;DHT22;24126;52.672;13.622;2023-07-31T12:55:22;24.50;74.70
38325;DHT22;24126;52.672;13.622;2023-07-31T12:57:49;24.50;74.50
38325;DHT22;24126;52.672;13.622;2023-07-31T13:00:16;24.60;74.50
38325;DHT22;24126;52.672;13.622;2023-07-31T13:02:43;24.60;74.30
38325;DHT22;24126;52.672;13.622;2023-07-31T13:05:10;24.60;74.20
38325;DHT22;24126;52.672;13.622;2023-07-31T13:07:39;24.60;74.30
38325;DHT22;24126;52.672;13.622;2023-07-31T13:10:06;24.60;74.40
38325;DHT22;24126;52.672;13.622;2023-07-31T13:12:33;24.60;74.20
38325;DHT22;24126;52.672;13.622;2023-07-31T13:15:00;24.60;74.30
38325;DHT22;24126;52.672;13.622;2023-07-31T13:17:28;24.60;74.30
38325;DHT22;24126;52.672;13.622;2023-07-31T13:19:55;24.60;74.30
38325;DHT22;24126;52.672;13.622;2023-07-31T13:22:22;24.60;74.30
38325;DHT22;24126;52.672;13.622;2023-07-31T13:24:49;24.50;74.30
38325;DHT22;24126;52.672;13.622;2023-07-31T13:27:16;24.50;74.70
38325;DHT22;24126;52.672;13.622;2023-07-31T13:29:45;24.60;75.30
38325;DHT22;24126;52.672;13.622;2023-07-31T13:32:12;24.60;75.20
38325;DHT22;24126;52.672;13.622;2023-07-31T13:34:39;24.70;75.20
38325;DHT22;24126;52.672;13.622;2023-07-31T13:37:06;24.70;75.10
38325;DHT22;24126;52.672;13.622;2023-07-31T13:39:34;24.70;74.80
38325;DHT22;24126;52.672;13.622;2023-07-31T13:42:04;24.70;74.90
38325;DHT22;24126;52.672;13.622;2023-07-31T13:44:32;24.70;75.30
38325;DHT22;24126;52.672;13.622;2023-07-31T13:46:59;24.70;75.60
38325;DHT22;24126;52.672;13.622;2023-07-31T13:49:27;24.70;75.70
38325;DHT22;24126;52.672;13.622;2023-07-31T13:51:54;24.70;76.30
38325;DHT22;24126;52.672;13.622;2023-07-31T13:54:22;24.80;76.60
38325;DHT22;24126;52.672;13.622;2023-07-31T13:56:49;24.90;76.50
38325;DHT22;24126;52.672;13.622;2023-07-31T13:59:16;25.10;76.30
38325;DHT22;24126;52.672;13.622;2023-07-31T14:01:44;25.20;76.10
38325;DHT22;24126;52.672;13.622;2023-07-31T14:04:11;25.20;75.60
38325;DHT22;24126;52.672;13.622;2023-07-31T14:06:38;25.30;75.70
38325;DHT22;24126;52.672;13.622;2023-07-31T14:09:05;25.30;75.60
38325;DHT22;24126;52.672;13.622;2023-07-31T14:11:32;25.30;75.70
38325;DHT22;24126;52.672;13.622;2023-07-31T14:13:59;25.40;75.70
38325;DHT22;24126;52.672;13.622;2023-07-31T14:16:27;25.50;75.60
38325;DHT22;24126;52.672;13.622;2023-07-31T14:18:54;25.50;75.40
38325;DHT22;24126;52.672;13.622;2023-07-31T14:21:21;25.50;75.40
38325;DHT22;24126;52.672;13.622;2023-07-31T14:23:48;25.50;74.20
38325;DHT22;24126;52.672;13.622;2023-07-31T14:26:16;25.50;74.20
38325;DHT22;24126;52.672;13.622;2023-07-31T14:28:43;25.50;73.70
38325;DHT22;24126;52.672;13.622;2023-07-31T14:31:10;25.40;73.00
38325;DHT22;24126;52.672;13.622;2023-07-31T14:33:37;25.40;73.10
38325;DHT22;24126;52.672;13.622;2023-07-31T14:36:04;25.30;72.70
38325;DHT22;24126;52.672;13.622;2023-07-31T14:38:31;25.20;72.30
38325;DHT22;24126;52.672;13.622;2023-07-31T14:40:59;25.10;71.90
38325;DHT22;24126;52.672;13.622;2023-07-31T14:43:26;25.10;72.60
38325;DHT22;24126;52.672;13.622;2023-07-31T14:45:53;25.10;72.60
38325;DHT22;24126;52.672;13.622;2023-07-31T14:48:23;25.00;72.80
38325;DHT22;24126;52.672;13.622;2023-07-31T14:50:50;25.00;72.80
38325;DHT22;24126;52.672;13.622;2023-07-31T14:53:17;25.00;73.00
38325;DHT22;24126;52.672;13.622;2023-07-31T14:55:44;25.00;72.30
38325;DHT22;24126;52.672;13.622;2023-07-31T14:58:11;25.00;72.10
38325;DHT22;24126;52.672;13.622;2023-07-31T15:00:39;24.90;71.80
38325;DHT22;24126;52.672;13.622;2023-07-31T15:03:06;24.90;71.80
38325;DHT22;24126;52.672;13.622;2023-07-31T15:05:33;24.90;71.80
38325;DHT22;24126;52.672;13.622;2023-07-31T15:08:00;24.90;71.60
38325;DHT22;24126;52.672;13.622;2023-07-31T15:10:27;24.80;71.30
38325;DHT22;24126;52.672;13.622;2023-07-31T15:12:55;24.80;71.70
38325;DHT22;24126;52.672;13.622;2023-07-31T15:15:22;24.80;71.50
38325;DHT22;24126;52.672;13.622;2023-07-31T15:17:49;24.70;71.40
38325;DHT22;24126;52.672;13.622;2023-07-31T15:20:16;24.70;71.50
38325;DHT22;24126;52.672;13.622;2023-07-31T15:22:43;24.70;72.10
38325;DHT22;24126;52.672;13.622;2023-07-31T15:25:10;24.70;71.40
38325;DHT22;24126;52.672;13.622;2023-07-31T15:27:37;24.60;71.40